createdAt,value
2022-08-24T00:01:28.782Z,99.90
2022-08-24T00:06:32.962Z,99.90
2022-08-24T00:11:35.506Z,99.90
2022-08-24T00:16:38.199Z,99.90
2022-08-24T00:21:40.589Z,99.90
2022-08-24T00:26:42.979Z,99.90
2022-08-24T00:31:45.540Z,99.90
2022-08-24T00:36:48.440Z,99.90
2022-08-24T00:41:52.257Z,99.90
2022-08-24T00:47:03.683Z,99.90
2022-08-24T00:52:32.583Z,99.90
2022-08-24T00:57:40.099Z,99.90
2022-08-24T01:02:45.710Z,99.90
2022-08-24T01:07:49.589Z,99.90
2022-08-24T01:13:01.072Z,99.90
2022-08-24T01:18:25.041Z,99.90
2022-08-24T01:23:42.948Z,99.90
2022-08-24T01:28:49.736Z,99.90
2022-08-24T01:33:55.437Z,99.90
2022-08-24T01:39:09.822Z,99.90
2022-08-24T01:44:13.716Z,99.90
2022-08-24T01:49:16.975Z,99.90
2022-08-24T01:54:19.698Z,99.90
2022-08-24T01:59:22.746Z,99.90
2022-08-24T02:04:25.216Z,99.90
2022-08-24T02:09:30.452Z,99.90
2022-08-24T02:14:37.417Z,99.90
2022-08-24T02:19:40.405Z,99.90
2022-08-24T02:24:43.470Z,99.90
2022-08-24T02:29:46.417Z,99.90
2022-08-24T02:34:49.208Z,99.90
2022-08-24T02:39:53.340Z,99.90
2022-08-24T02:44:57.603Z,99.90
2022-08-24T02:50:02.477Z,99.90
2022-08-24T02:55:08.736Z,99.90
2022-08-24T03:00:15.792Z,99.90
2022-08-24T03:05:26.274Z,99.90
2022-08-24T03:10:29.575Z,99.90
2022-08-24T03:15:32.210Z,99.90
2022-08-24T03:20:34.828Z,99.90
2022-08-24T03:25:37.238Z,99.90
2022-08-24T03:30:40.611Z,99.90
2022-08-24T03:35:45.330Z,99.90
2022-08-24T03:40:50.100Z,99.90
2022-08-24T03:45:52.584Z,99.90
2022-08-24T03:50:55.340Z,99.90
2022-08-24T03:55:58.392Z,99.90
2022-08-24T04:01:01.459Z,99.90
2022-08-24T04:06:05.674Z,99.90
2022-08-24T04:11:15.904Z,99.90
2022-08-24T04:16:21.474Z,99.90
2022-08-24T04:21:35.480Z,99.90
2022-08-24T04:26:45.486Z,99.90
2022-08-24T04:31:52.249Z,99.90
2022-08-24T04:36:55.074Z,99.90
2022-08-24T04:41:58.976Z,99.90
2022-08-24T04:47:09.889Z,99.90
2022-08-24T04:52:14.042Z,99.90
2022-08-24T04:57:18.577Z,99.90
2022-08-24T05:02:22.859Z,99.90
2022-08-24T05:07:27.098Z,99.90
2022-08-24T05:12:29.867Z,99.90
2022-08-24T05:17:36.108Z,99.90
2022-08-24T05:22:38.590Z,99.90
2022-08-24T05:27:41.433Z,99.90
2022-08-24T05:32:43.977Z,99.90
2022-08-24T05:37:46.563Z,99.90
2022-08-24T05:42:51.940Z,99.90
2022-08-24T05:47:54.958Z,99.90
2022-08-24T05:53:20.251Z,99.90
2022-08-24T05:58:30.835Z,99.90
2022-08-24T06:03:38.883Z,99.90
2022-08-24T06:08:46.342Z,99.90
2022-08-24T06:13:51.865Z,99.90
2022-08-24T06:18:59.738Z,99.90
2022-08-24T06:24:05.187Z,99.90
2022-08-24T06:29:09.260Z,99.90
2022-08-24T06:34:19.949Z,99.90
2022-08-24T06:39:23.839Z,99.90
2022-08-24T06:44:31.183Z,99.90
2022-08-24T06:49:46.851Z,99.90
2022-08-24T06:54:49.205Z,99.90
2022-08-24T06:59:51.629Z,99.90
2022-08-24T07:04:54.772Z,99.90
2022-08-24T07:10:15.854Z,99.90
2022-08-24T07:15:19.709Z,99.90
2022-08-24T07:20:32.843Z,99.90
2022-08-24T07:25:55.883Z,99.90
2022-08-24T07:30:58.788Z,99.90
2022-08-24T07:36:03.094Z,99.90
2022-08-24T07:41:35.583Z,99.90
2022-08-24T07:46:28.786Z,99.90
2022-08-24T07:56:42.519Z,99.90
2022-08-24T08:01:45.248Z,99.90
2022-08-24T08:06:47.937Z,99.90
2022-08-24T08:11:51.082Z,99.90
2022-08-24T08:16:54.333Z,99.90
2022-08-24T08:22:16.447Z,99.90
2022-08-24T08:28:04.216Z,99.90
2022-08-24T08:33:16.298Z,99.90
2022-08-24T08:38:19.247Z,99.90
2022-08-24T08:43:22.136Z,99.90
2022-08-24T08:49:03.692Z,99.90
2022-08-24T08:54:48.388Z,99.90
2022-08-24T09:00:19.209Z,99.90
2022-08-24T09:05:44.193Z,99.90
2022-08-24T09:11:06.415Z,99.90
2022-08-24T09:16:26.256Z,99.90
2022-08-24T09:21:54.245Z,99.90
2022-08-24T09:27:17.548Z,99.90
2022-08-24T09:32:51.456Z,99.90
2022-08-24T09:38:00.207Z,99.90
2022-08-24T09:43:16.244Z,99.90
2022-08-24T09:54:42.048Z,99.90
2022-08-24T09:59:59.718Z,99.90
2022-08-24T10:05:36.375Z,99.90
2022-08-24T10:10:58.631Z,99.90
2022-08-24T10:16:01.785Z,98.70
2022-08-24T10:21:21.204Z,98.20
2022-08-24T10:26:41.714Z,97.50
2022-08-24T10:31:48.657Z,99.20
2022-08-24T10:37:10.344Z,98.70
2022-08-24T10:43:08.910Z,99.90
2022-08-24T10:48:34.623Z,99.80
2022-08-24T10:53:37.661Z,98.40
2022-08-24T10:58:55.199Z,98.20
2022-08-24T11:04:10.079Z,95.60
2022-08-24T11:09:19.975Z,95.60
2022-08-24T11:14:26.792Z,95.10
2022-08-24T11:19:35.210Z,94.10
2022-08-24T11:24:48.773Z,93.80
2022-08-24T11:29:51.442Z,92.50
2022-08-24T11:34:54.025Z,91.10
2022-08-24T11:39:56.656Z,92.80
2022-08-24T11:45:16.014Z,92.40
2022-08-24T11:50:22.141Z,93.00
2022-08-24T11:55:57.224Z,93.10
2022-08-24T12:01:23.608Z,91.90
2022-08-24T12:06:51.288Z,91.50
2022-08-24T12:12:16.407Z,91.90
2022-08-24T12:17:44.562Z,92.10
2022-08-24T12:22:47.724Z,90.50
2022-08-24T12:27:52.398Z,88.20
2022-08-24T12:33:10.830Z,88.30
2022-08-24T12:38:26.959Z,90.10
2022-08-24T12:43:42.325Z,90.80
2022-08-24T12:48:50.981Z,90.20
2022-08-24T12:54:15.927Z,89.10
2022-08-24T12:59:22.641Z,87.90
2022-08-24T13:04:36.864Z,79.30
2022-08-24T13:09:44.957Z,73.20
2022-08-24T13:14:51.061Z,69.50
2022-08-24T13:20:23.589Z,67.50
2022-08-24T13:25:47.487Z,70.20
2022-08-24T13:30:55.898Z,74.00
2022-08-24T13:36:29.418Z,78.10
2022-08-24T13:42:13.141Z,80.00
2022-08-24T13:47:52.552Z,78.50
2022-08-24T13:53:03.882Z,73.60
2022-08-24T13:58:20.243Z,64.80
2022-08-24T14:03:22.918Z,58.90
2022-08-24T14:08:47.067Z,55.80
2022-08-24T14:14:10.097Z,51.90
2022-08-24T14:19:21.035Z,50.10
2022-08-24T14:25:07.703Z,49.20
2022-08-24T14:30:19.212Z,53.20
2022-08-24T14:35:31.834Z,59.30
2022-08-24T14:40:38.491Z,63.00
2022-08-24T14:45:52.775Z,66.50
2022-08-24T14:51:03.919Z,67.20
2022-08-24T14:56:25.060Z,58.30
2022-08-24T15:01:48.372Z,57.40
2022-08-24T15:06:59.028Z,64.10
2022-08-24T15:12:19.531Z,67.50
2022-08-24T15:17:29.026Z,59.60
2022-08-24T15:22:46.538Z,56.10
2022-08-24T15:27:58.412Z,52.30
2022-08-24T15:33:19.968Z,51.20
2022-08-24T15:38:27.977Z,51.20
2022-08-24T15:43:30.891Z,54.30
2022-08-24T15:48:34.223Z,58.70
2022-08-24T15:53:41.696Z,62.50
2022-08-24T15:58:44.261Z,64.60
2022-08-24T16:03:52.931Z,64.40
2022-08-24T16:08:58.157Z,64.50
2022-08-24T16:14:01.019Z,67.40
2022-08-24T16:19:08.759Z,70.50
2022-08-24T16:24:23.412Z,74.50
2022-08-24T16:29:37.881Z,77.10
2022-08-24T16:34:42.915Z,74.00
2022-08-24T16:39:45.792Z,74.80
2022-08-24T16:44:48.403Z,70.50
2022-08-24T16:49:51.606Z,70.00
2022-08-24T16:54:54.044Z,73.00
2022-08-24T16:59:56.724Z,74.70
2022-08-24T17:04:59.468Z,77.00
2022-08-24T17:10:04.117Z,79.60
2022-08-24T17:15:09.620Z,81.50
2022-08-24T17:20:12.147Z,83.50
2022-08-24T17:25:14.654Z,85.30
2022-08-24T17:30:18.533Z,87.00
2022-08-24T17:35:22.347Z,89.40
2022-08-24T17:40:25.930Z,91.10
2022-08-24T17:45:28.714Z,92.50
2022-08-24T17:50:32.022Z,94.30
2022-08-24T17:55:34.649Z,94.80
2022-08-24T18:00:38.165Z,96.20
2022-08-24T18:05:41.291Z,97.40
2022-08-24T18:10:43.895Z,97.90
2022-08-24T18:15:46.403Z,99.80
2022-08-24T18:20:50.979Z,99.90
2022-08-24T18:25:54.088Z,99.90
2022-08-24T18:30:56.727Z,99.90
2022-08-24T18:35:59.327Z,99.90
2022-08-24T18:41:02.107Z,99.90
2022-08-24T18:46:05.956Z,99.90
2022-08-24T18:51:09.603Z,99.90
2022-08-24T18:56:12.807Z,99.90
2022-08-24T19:01:15.504Z,99.90
2022-08-24T19:06:18.067Z,99.90
2022-08-24T19:11:24.225Z,99.90
2022-08-24T19:16:26.809Z,99.90
2022-08-24T19:21:31.856Z,99.90
2022-08-24T19:26:36.449Z,99.90
2022-08-24T19:31:39.223Z,99.90
2022-08-24T19:36:42.020Z,99.90
2022-08-24T19:41:47.500Z,99.90
2022-08-24T19:46:53.173Z,99.90
2022-08-24T19:51:56.173Z,99.90
2022-08-24T19:56:59.878Z,99.90
2022-08-24T20:02:02.382Z,99.90
2022-08-24T20:07:05.052Z,99.90
2022-08-24T20:12:07.991Z,99.90
2022-08-24T20:17:10.612Z,99.90
2022-08-24T20:22:13.626Z,99.90
2022-08-24T20:27:23.250Z,99.90
2022-08-24T20:32:26.143Z,99.90
2022-08-24T20:37:30.335Z,99.90
2022-08-24T20:42:32.964Z,99.90
2022-08-24T20:47:37.947Z,99.90
2022-08-24T20:52:42.279Z,99.90
2022-08-24T20:58:03.668Z,99.90
2022-08-24T21:03:06.606Z,99.90
2022-08-24T21:08:10.667Z,99.90
2022-08-24T21:13:13.131Z,99.90
2022-08-24T21:18:15.902Z,99.90
2022-08-24T21:23:18.332Z,99.90
2022-08-24T21:28:22.081Z,99.90
2022-08-24T21:33:43.082Z,99.90
2022-08-24T21:38:45.588Z,99.90
2022-08-24T21:43:48.149Z,99.90
2022-08-24T21:48:50.805Z,99.90
2022-08-24T21:53:56.954Z,99.90
2022-08-24T21:59:03.197Z,99.90
2022-08-24T22:04:06.739Z,99.90
2022-08-24T22:09:09.645Z,99.90
2022-08-24T22:14:12.471Z,99.90
2022-08-24T22:19:16.781Z,99.90
2022-08-24T22:24:19.237Z,99.90
2022-08-24T22:29:22.538Z,99.90
2022-08-24T22:34:25.443Z,99.90
2022-08-24T22:39:28.784Z,99.90
2022-08-24T22:44:32.298Z,99.90
2022-08-24T22:49:39.930Z,99.90
2022-08-24T22:54:42.760Z,99.90
2022-08-24T22:59:45.186Z,99.90
2022-08-24T23:04:49.949Z,99.90
2022-08-24T23:09:52.369Z,99.90
2022-08-24T23:14:55.299Z,99.90
2022-08-24T23:20:01.187Z,99.90
2022-08-24T23:25:05.464Z,99.90
2022-08-24T23:30:11.694Z,99.90
2022-08-24T23:35:14.118Z,99.90
2022-08-24T23:40:17.375Z,99.90
2022-08-24T23:45:19.872Z,99.90
2022-08-24T23:50:30.759Z,99.90
2022-08-24T23:55:33.199Z,99.90
